sensor_id;sensor_type;location;lat;lon;timestamp;pressure;altitude;pressure_sealevel;temperature;humidity
43488;BME280;29078;41.932;25.554;2022-07-25T00:01:52;99217.97;;;30.36;37.58
43488;BME280;29078;41.932;25.554;2022-07-25T00:04:19;99260.19;;;30.56;37.63
43488;BME280;29078;41.932;25.554;2022-07-25T00:06:45;99129.69;;;29.80;37.72
43488;BME280;29078;41.932;25.554;2022-07-25T00:09:10;99265.31;;;30.57;38.08
43488;BME280;29078;41.932;25.554;2022-07-25T00:11:36;99209.47;;;30.29;37.86
43488;BME280;29078;41.932;25.554;2022-07-25T00:14:02;99251.09;;;30.60;37.55
43488;BME280;29078;41.932;25.554;2022-07-25T00:16:28;99178.09;;;30.00;37.98
43488;BME280;29078;41.932;25.554;2022-07-25T00:18:54;99196.91;;;30.11;37.55
43488;BME280;29078;41.932;25.554;2022-07-25T00:21:19;99267.22;;;30.48;37.75
43488;BME280;29078;41.932;25.554;2022-07-25T00:23:45;99133.94;;;29.72;37.42
43488;BME280;29078;41.932;25.554;2022-07-25T00:26:10;99133.78;;;29.69;37.44
43488;BME280;29078;41.932;25.554;2022-07-25T00:28:35;99129.59;;;29.63;37.44
43488;BME280;29078;41.932;25.554;2022-07-25T00:31:03;99274.13;;;30.54;37.09
43488;BME280;29078;41.932;25.554;2022-07-25T00:33:28;99184.34;;;30.01;37.17
43488;BME280;29078;41.932;25.554;2022-07-25T00:35:54;99183.38;;;29.97;37.27
43488;BME280;29078;41.932;25.554;2022-07-25T00:38:19;99276.31;;;30.44;37.20
43488;BME280;29078;41.932;25.554;2022-07-25T00:40:45;99219.00;;;30.09;37.08
43488;BME280;29078;41.932;25.554;2022-07-25T00:43:10;99244.06;;;30.28;36.75
43488;BME280;29078;41.932;25.554;2022-07-25T00:45:36;99237.47;;;30.21;36.69
43488;BME280;29078;41.932;25.554;2022-07-25T00:48:01;99136.97;;;29.71;36.44
43488;BME280;29078;41.932;25.554;2022-07-25T00:50:27;99170.63;;;29.75;36.01
43488;BME280;29078;41.932;25.554;2022-07-25T00:52:52;99295.13;;;30.54;36.22
43488;BME280;29078;41.932;25.554;2022-07-25T00:55:18;99255.06;;;30.15;35.86
43488;BME280;29078;41.932;25.554;2022-07-25T00:57:44;99295.13;;;30.54;35.76
43488;BME280;29078;41.932;25.554;2022-07-25T01:00:12;99291.28;;;30.55;35.87
43488;BME280;29078;41.932;25.554;2022-07-25T01:02:39;99236.00;;;30.15;35.60
43488;BME280;29078;41.932;25.554;2022-07-25T01:05:05;99319.34;;;30.55;35.64
43488;BME280;29078;41.932;25.554;2022-07-25T01:07:31;99299.59;;;30.50;35.74
43488;BME280;29078;41.932;25.554;2022-07-25T01:09:58;99245.19;;;29.96;35.94
43488;BME280;29078;41.932;25.554;2022-07-25T01:12:24;99273.16;;;30.11;36.12
43488;BME280;29078;41.932;25.554;2022-07-25T01:14:49;99194.34;;;29.52;36.50
43488;BME280;29078;41.932;25.554;2022-07-25T01:17:15;99290.16;;;29.94;36.79
43488;BME280;29078;41.932;25.554;2022-07-25T01:19:40;99217.66;;;29.45;37.06
43488;BME280;29078;41.932;25.554;2022-07-25T01:22:06;99182.41;;;29.17;37.25
43488;BME280;29078;41.932;25.554;2022-07-25T01:24:33;99335.03;;;29.96;37.69
43488;BME280;29078;41.932;25.554;2022-07-25T01:26:59;99328.47;;;29.97;37.84
43488;BME280;29078;41.932;25.554;2022-07-25T01:29:25;99286.78;;;29.66;38.21
43488;BME280;29078;41.932;25.554;2022-07-25T01:31:50;99222.16;;;29.27;38.49
43488;BME280;29078;41.932;25.554;2022-07-25T01:34:15;99145.78;;;28.42;38.50
43488;BME280;29078;41.932;25.554;2022-07-25T01:36:41;99207.94;;;28.94;38.82
43488;BME280;29078;41.932;25.554;2022-07-25T01:39:06;99273.56;;;29.15;38.76
43488;BME280;29078;41.932;25.554;2022-07-25T01:41:32;99347.06;;;29.59;38.80
43488;BME280;29078;41.932;25.554;2022-07-25T01:43:57;99215.31;;;28.93;39.29
43488;BME280;29078;41.932;25.554;2022-07-25T01:46:23;99323.31;;;29.51;39.38
43488;BME280;29078;41.932;25.554;2022-07-25T01:48:48;99278.91;;;29.06;39.34
43488;BME280;29078;41.932;25.554;2022-07-25T01:51:13;99302.00;;;29.45;39.02
43488;BME280;29078;41.932;25.554;2022-07-25T01:53:39;99266.22;;;29.15;39.54
43488;BME280;29078;41.932;25.554;2022-07-25T01:56:05;99310.16;;;29.45;39.30
43488;BME280;29078;41.932;25.554;2022-07-25T01:58:31;99075.31;;;28.10;39.52
43488;BME280;29078;41.932;25.554;2022-07-25T02:00:56;99243.59;;;29.28;39.59
43488;BME280;29078;41.932;25.554;2022-07-25T02:03:22;99156.56;;;28.70;39.76
43488;BME280;29078;41.932;25.554;2022-07-25T02:05:58;99280.22;;;29.67;39.57
43488;BME280;29078;41.932;25.554;2022-07-25T02:08:24;99286.28;;;29.64;39.97
43488;BME280;29078;41.932;25.554;2022-07-25T02:10:50;99307.84;;;29.60;40.48
43488;BME280;29078;41.932;25.554;2022-07-25T02:13:16;99145.97;;;28.46;40.28
43488;BME280;29078;41.932;25.554;2022-07-25T02:15:41;99179.66;;;28.59;40.82
43488;BME280;29078;41.932;25.554;2022-07-25T02:18:07;99230.47;;;29.08;40.88
43488;BME280;29078;41.932;25.554;2022-07-25T02:20:32;99147.28;;;28.48;41.05
43488;BME280;29078;41.932;25.554;2022-07-25T02:22:58;99283.34;;;29.38;40.92
43488;BME280;29078;41.932;25.554;2022-07-25T02:25:23;99170.56;;;28.63;41.42
43488;BME280;29078;41.932;25.554;2022-07-25T02:27:49;99250.63;;;29.07;41.39
43488;BME280;29078;41.932;25.554;2022-07-25T02:30:14;99072.22;;;27.89;41.48
43488;BME280;29078;41.932;25.554;2022-07-25T02:32:40;99213.72;;;28.78;41.69
43488;BME280;29078;41.932;25.554;2022-07-25T02:35:06;99292.34;;;29.25;41.43
43488;BME280;29078;41.932;25.554;2022-07-25T02:37:31;99247.00;;;28.98;41.51
43488;BME280;29078;41.932;25.554;2022-07-25T02:39:57;99160.78;;;28.40;41.46
43488;BME280;29078;41.932;25.554;2022-07-25T02:42:23;99195.13;;;28.58;42.12
43488;BME280;29078;41.932;25.554;2022-07-25T02:44:48;99240.56;;;28.80;42.01
43488;BME280;29078;41.932;25.554;2022-07-25T02:47:14;99193.66;;;28.38;41.96
43488;BME280;29078;41.932;25.554;2022-07-25T02:49:39;99283.34;;;29.02;42.04
43488;BME280;29078;41.932;25.554;2022-07-25T02:52:04;99199.19;;;28.47;42.01
43488;BME280;29078;41.932;25.554;2022-07-25T02:54:30;99215.38;;;28.38;41.92
43488;BME280;29078;41.932;25.554;2022-07-25T02:56:55;99182.31;;;28.36;41.81
43488;BME280;29078;41.932;25.554;2022-07-25T02:59:20;99260.09;;;28.82;41.55
43488;BME280;29078;41.932;25.554;2022-07-25T03:01:46;99232.25;;;28.63;41.33
43488;BME280;29078;41.932;25.554;2022-07-25T03:04:11;99223.00;;;28.64;41.29
43488;BME280;29078;41.932;25.554;2022-07-25T03:06:37;99195.56;;;28.52;40.60
43488;BME280;29078;41.932;25.554;2022-07-25T03:09:03;99190.63;;;28.54;40.65
43488;BME280;29078;41.932;25.554;2022-07-25T03:11:28;99204.09;;;28.59;40.16
43488;BME280;29078;41.932;25.554;2022-07-25T03:13:54;99168.31;;;28.43;40.12
43488;BME280;29078;41.932;25.554;2022-07-25T03:16:19;99274.09;;;29.03;39.94
43488;BME280;29078;41.932;25.554;2022-07-25T03:18:45;99236.16;;;28.84;39.81
43488;BME280;29078;41.932;25.554;2022-07-25T03:21:11;99253.16;;;29.03;39.88
43488;BME280;29078;41.932;25.554;2022-07-25T03:23:36;99304.00;;;29.39;40.09
43488;BME280;29078;41.932;25.554;2022-07-25T03:26:02;99268.44;;;29.13;39.90
43488;BME280;29078;41.932;25.554;2022-07-25T03:28:28;99244.81;;;28.86;40.05
43488;BME280;29078;41.932;25.554;2022-07-25T03:30:53;99319.63;;;29.33;40.75
43488;BME280;29078;41.932;25.554;2022-07-25T03:33:19;99338.47;;;29.44;40.91
43488;BME280;29078;41.932;25.554;2022-07-25T03:35:44;99354.00;;;29.16;41.55
43488;BME280;29078;41.932;25.554;2022-07-25T03:38:10;99349.59;;;28.92;41.83
43488;BME280;29078;41.932;25.554;2022-07-25T03:40:35;99134.63;;;27.62;42.33
43488;BME280;29078;41.932;25.554;2022-07-25T03:43:01;99232.31;;;28.16;42.44
43488;BME280;29078;41.932;25.554;2022-07-25T03:45:27;99257.94;;;28.29;42.87
43488;BME280;29078;41.932;25.554;2022-07-25T03:47:53;99359.47;;;29.02;42.98
43488;BME280;29078;41.932;25.554;2022-07-25T03:50:19;99165.31;;;27.57;43.21
43488;BME280;29078;41.932;25.554;2022-07-25T03:52:44;99270.25;;;28.22;43.22
43488;BME280;29078;41.932;25.554;2022-07-25T03:55:10;99356.25;;;28.86;43.23
43488;BME280;29078;41.932;25.554;2022-07-25T03:57:36;99380.28;;;28.93;43.36
43488;BME280;29078;41.932;25.554;2022-07-25T04:00:03;99365.78;;;28.97;43.22
43488;BME280;29078;41.932;25.554;2022-07-25T04:02:29;99315.66;;;28.62;43.11
43488;BME280;29078;41.932;25.554;2022-07-25T04:04:54;99349.88;;;28.77;43.41
43488;BME280;29078;41.932;25.554;2022-07-25T04:07:19;99345.38;;;28.86;43.40
43488;BME280;29078;41.932;25.554;2022-07-25T04:09:45;99308.44;;;28.58;43.27
43488;BME280;29078;41.932;25.554;2022-07-25T04:12:10;99348.47;;;28.93;43.15
43488;BME280;29078;41.932;25.554;2022-07-25T04:14:36;99277.66;;;28.48;43.25
43488;BME280;29078;41.932;25.554;2022-07-25T04:17:01;99300.38;;;28.66;43.32
43488;BME280;29078;41.932;25.554;2022-07-25T04:19:26;99269.78;;;28.47;43.22
43488;BME280;29078;41.932;25.554;2022-07-25T04:21:52;99281.25;;;28.58;42.77
43488;BME280;29078;41.932;25.554;2022-07-25T04:24:17;99284.06;;;28.53;43.01
43488;BME280;29078;41.932;25.554;2022-07-25T04:26:43;99279.94;;;28.55;42.95
43488;BME280;29078;41.932;25.554;2022-07-25T04:29:08;99336.81;;;28.93;43.02
43488;BME280;29078;41.932;25.554;2022-07-25T04:31:34;99377.56;;;29.20;42.89
43488;BME280;29078;41.932;25.554;2022-07-25T04:33:59;99310.34;;;28.85;42.76
43488;BME280;29078;41.932;25.554;2022-07-25T04:36:24;99307.31;;;28.86;43.31
43488;BME280;29078;41.932;25.554;2022-07-25T04:38:51;99356.63;;;29.21;42.95
43488;BME280;29078;41.932;25.554;2022-07-25T04:41:17;99315.25;;;28.96;43.31
43488;BME280;29078;41.932;25.554;2022-07-25T04:43:43;99354.50;;;29.18;43.00
43488;BME280;29078;41.932;25.554;2022-07-25T04:46:08;99242.03;;;28.50;43.16
43488;BME280;29078;41.932;25.554;2022-07-25T04:48:33;99301.88;;;28.86;42.85
43488;BME280;29078;41.932;25.554;2022-07-25T04:50:59;99319.19;;;29.04;43.08
43488;BME280;29078;41.932;25.554;2022-07-25T04:53:24;99293.50;;;28.83;43.14
43488;BME280;29078;41.932;25.554;2022-07-25T04:55:50;99232.06;;;28.59;43.29
43488;BME280;29078;41.932;25.554;2022-07-25T04:58:15;99321.00;;;29.08;43.17
43488;BME280;29078;41.932;25.554;2022-07-25T05:00:40;99277.81;;;28.79;43.52
43488;BME280;29078;41.932;25.554;2022-07-25T05:03:06;99297.44;;;28.90;43.64
43488;BME280;29078;41.932;25.554;2022-07-25T05:05:31;99335.06;;;29.24;43.63
43488;BME280;29078;41.932;25.554;2022-07-25T05:07:58;99293.44;;;29.01;43.33
43488;BME280;29078;41.932;25.554;2022-07-25T05:10:25;99351.03;;;29.39;43.05
43488;BME280;29078;41.932;25.554;2022-07-25T05:12:51;99360.00;;;29.40;42.86
43488;BME280;29078;41.932;25.554;2022-07-25T05:15:17;99351.25;;;29.43;42.63
43488;BME280;29078;41.932;25.554;2022-07-25T05:17:43;99362.50;;;29.50;42.36
43488;BME280;29078;41.932;25.554;2022-07-25T05:20:09;99353.56;;;29.36;42.52
43488;BME280;29078;41.932;25.554;2022-07-25T05:22:35;99326.28;;;29.27;42.00
43488;BME280;29078;41.932;25.554;2022-07-25T05:25:00;99312.06;;;29.30;41.72
43488;BME280;29078;41.932;25.554;2022-07-25T05:27:27;99370.44;;;29.60;41.91
43488;BME280;29078;41.932;25.554;2022-07-25T05:29:52;99194.28;;;28.35;41.93
43488;BME280;29078;41.932;25.554;2022-07-25T05:32:18;99363.28;;;29.64;41.74
43488;BME280;29078;41.932;25.554;2022-07-25T05:34:43;99272.44;;;29.16;41.78
43488;BME280;29078;41.932;25.554;2022-07-25T05:37:09;99327.72;;;29.61;41.41
43488;BME280;29078;41.932;25.554;2022-07-25T05:39:35;99278.94;;;29.28;41.32
43488;BME280;29078;41.932;25.554;2022-07-25T05:42:04;99338.03;;;29.72;41.22
43488;BME280;29078;41.932;25.554;2022-07-25T05:44:29;99309.75;;;29.37;41.37
43488;BME280;29078;41.932;25.554;2022-07-25T05:46:54;99261.22;;;29.31;41.42
43488;BME280;29078;41.932;25.554;2022-07-25T05:49:20;99271.53;;;29.20;41.51
43488;BME280;29078;41.932;25.554;2022-07-25T05:51:45;99232.28;;;29.13;41.45
43488;BME280;29078;41.932;25.554;2022-07-25T05:54:11;99334.91;;;29.79;41.11
43488;BME280;29078;41.932;25.554;2022-07-25T05:56:36;99308.41;;;29.49;40.75
43488;BME280;29078;41.932;25.554;2022-07-25T05:59:02;99243.22;;;29.21;40.88
43488;BME280;29078;41.932;25.554;2022-07-25T06:01:27;99244.06;;;29.08;40.78
43488;BME280;29078;41.932;25.554;2022-07-25T06:03:53;99262.56;;;29.20;40.84
43488;BME280;29078;41.932;25.554;2022-07-25T06:06:18;99306.38;;;29.54;40.96
43488;BME280;29078;41.932;25.554;2022-07-25T06:08:44;99288.00;;;29.60;41.03
43488;BME280;29078;41.932;25.554;2022-07-25T06:11:09;99254.66;;;29.32;40.46
43488;BME280;29078;41.932;25.554;2022-07-25T06:13:35;99142.16;;;28.47;40.30
43488;BME280;29078;41.932;25.554;2022-07-25T06:16:00;99166.31;;;28.71;40.43
43488;BME280;29078;41.932;25.554;2022-07-25T06:18:27;99295.69;;;29.58;40.34
43488;BME280;29078;41.932;25.554;2022-07-25T06:20:53;99339.25;;;29.80;40.58
43488;BME280;29078;41.932;25.554;2022-07-25T06:23:19;99257.75;;;29.39;40.20
43488;BME280;29078;41.932;25.554;2022-07-25T06:25:45;99339.16;;;29.94;40.57
43488;BME280;29078;41.932;25.554;2022-07-25T06:28:11;99235.63;;;29.32;40.19
43488;BME280;29078;41.932;25.554;2022-07-25T06:30:40;99341.72;;;29.90;40.25
43488;BME280;29078;41.932;25.554;2022-07-25T06:33:05;99236.00;;;29.39;40.33
43488;BME280;29078;41.932;25.554;2022-07-25T06:35:31;99311.72;;;30.04;40.22
43488;BME280;29078;41.932;25.554;2022-07-25T06:37:56;99282.75;;;29.86;39.82
43488;BME280;29078;41.932;25.554;2022-07-25T06:40:22;99329.00;;;30.30;40.25
43488;BME280;29078;41.932;25.554;2022-07-25T06:42:47;99263.41;;;29.87;40.21
43488;BME280;29078;41.932;25.554;2022-07-25T06:45:13;99227.91;;;29.70;40.88
43488;BME280;29078;41.932;25.554;2022-07-25T06:47:41;99327.91;;;30.40;40.86
43488;BME280;29078;41.932;25.554;2022-07-25T06:50:09;99099.13;;;28.99;40.63
43488;BME280;29078;41.932;25.554;2022-07-25T06:52:35;99242.28;;;29.93;40.90
43488;BME280;29078;41.932;25.554;2022-07-25T06:55:01;99321.41;;;30.50;41.14
43488;BME280;29078;41.932;25.554;2022-07-25T06:57:27;99241.72;;;30.04;41.16
43488;BME280;29078;41.932;25.554;2022-07-25T06:59:53;99237.88;;;30.06;40.96
43488;BME280;29078;41.932;25.554;2022-07-25T07:02:18;99183.06;;;29.67;40.50
43488;BME280;29078;41.932;25.554;2022-07-25T07:04:44;99332.22;;;30.63;40.31
43488;BME280;29078;41.932;25.554;2022-07-25T07:07:09;99288.97;;;30.40;40.72
43488;BME280;29078;41.932;25.554;2022-07-25T07:09:35;99311.16;;;30.55;40.39
43488;BME280;29078;41.932;25.554;2022-07-25T07:12:00;99343.19;;;30.81;40.48
43488;BME280;29078;41.932;25.554;2022-07-25T07:14:26;99243.25;;;30.28;40.11
43488;BME280;29078;41.932;25.554;2022-07-25T07:16:51;99277.59;;;30.46;40.24
43488;BME280;29078;41.932;25.554;2022-07-25T07:19:17;99243.38;;;30.14;40.15
43488;BME280;29078;41.932;25.554;2022-07-25T07:21:42;99263.75;;;30.25;40.55
43488;BME280;29078;41.932;25.554;2022-07-25T07:24:08;99340.94;;;30.83;40.80
43488;BME280;29078;41.932;25.554;2022-07-25T07:26:34;99339.66;;;30.80;39.54
43488;BME280;29078;41.932;25.554;2022-07-25T07:28:59;99249.50;;;30.28;39.29
43488;BME280;29078;41.932;25.554;2022-07-25T07:31:27;99245.03;;;30.32;38.77
43488;BME280;29078;41.932;25.554;2022-07-25T07:33:52;99285.09;;;30.63;38.72
43488;BME280;29078;41.932;25.554;2022-07-25T07:36:18;99268.16;;;30.44;38.33
43488;BME280;29078;41.932;25.554;2022-07-25T07:38:43;99223.59;;;30.40;37.96
43488;BME280;29078;41.932;25.554;2022-07-25T07:41:09;99303.91;;;30.90;37.98
43488;BME280;29078;41.932;25.554;2022-07-25T07:43:34;99250.38;;;30.46;37.53
43488;BME280;29078;41.932;25.554;2022-07-25T07:46:00;99243.72;;;30.61;37.41
43488;BME280;29078;41.932;25.554;2022-07-25T07:48:27;99304.25;;;30.97;37.18
43488;BME280;29078;41.932;25.554;2022-07-25T07:50:52;99332.25;;;31.29;37.41
43488;BME280;29078;41.932;25.554;2022-07-25T07:53:18;99349.56;;;31.33;36.59
43488;BME280;29078;41.932;25.554;2022-07-25T07:55:43;99248.09;;;30.88;36.87
43488;BME280;29078;41.932;25.554;2022-07-25T07:58:19;99298.19;;;31.18;36.76
43488;BME280;29078;41.932;25.554;2022-07-25T08:00:47;99146.50;;;30.30;36.75
43488;BME280;29078;41.932;25.554;2022-07-25T08:03:17;99321.00;;;31.39;36.55
43488;BME280;29078;41.932;25.554;2022-07-25T08:05:44;99345.56;;;31.56;36.84
43488;BME280;29078;41.932;25.554;2022-07-25T08:08:13;99286.50;;;31.26;36.73
43488;BME280;29078;41.932;25.554;2022-07-25T08:10:41;99209.94;;;30.88;36.51
43488;BME280;29078;41.932;25.554;2022-07-25T08:15:42;99236.91;;;31.15;36.34
43488;BME280;29078;41.932;25.554;2022-07-25T08:18:07;99157.00;;;30.72;35.94
43488;BME280;29078;41.932;25.554;2022-07-25T08:20:33;99337.72;;;31.81;35.97
43488;BME280;29078;41.932;25.554;2022-07-25T08:22:58;99272.84;;;31.52;35.56
43488;BME280;29078;41.932;25.554;2022-07-25T08:25:24;99339.47;;;32.03;35.76
43488;BME280;29078;41.932;25.554;2022-07-25T08:27:49;99335.75;;;32.07;35.39
43488;BME280;29078;41.932;25.554;2022-07-25T08:30:16;99259.84;;;31.57;35.01
43488;BME280;29078;41.932;25.554;2022-07-25T08:32:50;99363.16;;;32.37;35.43
43488;BME280;29078;41.932;25.554;2022-07-25T08:35:17;99291.44;;;32.02;35.49
43488;BME280;29078;41.932;25.554;2022-07-25T08:37:43;99268.78;;;32.01;35.06
43488;BME280;29078;41.932;25.554;2022-07-25T08:40:11;99367.88;;;32.66;34.60
43488;BME280;29078;41.932;25.554;2022-07-25T08:42:37;99309.22;;;32.16;34.54
43488;BME280;29078;41.932;25.554;2022-07-25T08:45:04;99310.47;;;32.28;34.62
43488;BME280;29078;41.932;25.554;2022-07-25T08:47:31;99367.41;;;32.72;34.44
43488;BME280;29078;41.932;25.554;2022-07-25T08:49:57;99312.66;;;32.43;34.17
43488;BME280;29078;41.932;25.554;2022-07-25T08:52:23;99358.50;;;32.84;34.26
43488;BME280;29078;41.932;25.554;2022-07-25T08:54:49;99353.88;;;33.05;33.84
43488;BME280;29078;41.932;25.554;2022-07-25T08:57:15;99312.69;;;32.81;34.03
43488;BME280;29078;41.932;25.554;2022-07-25T08:59:41;99381.66;;;33.16;34.06
43488;BME280;29078;41.932;25.554;2022-07-25T09:02:07;99239.97;;;32.50;33.67
43488;BME280;29078;41.932;25.554;2022-07-25T09:04:36;99345.75;;;33.17;33.91
43488;BME280;29078;41.932;25.554;2022-07-25T09:07:02;99275.28;;;32.94;33.21
43488;BME280;29078;41.932;25.554;2022-07-25T09:09:37;99353.75;;;33.52;32.83
43488;BME280;29078;41.932;25.554;2022-07-25T09:12:04;99297.63;;;33.16;33.01
43488;BME280;29078;41.932;25.554;2022-07-25T09:14:29;99321.53;;;33.28;32.98
43488;BME280;29078;41.932;25.554;2022-07-25T09:16:55;99297.41;;;33.30;32.89
43488;BME280;29078;41.932;25.554;2022-07-25T09:19:22;99354.06;;;33.92;32.60
43488;BME280;29078;41.932;25.554;2022-07-25T09:22:00;99304.50;;;33.85;32.24
43488;BME280;29078;41.932;25.554;2022-07-25T09:24:27;99361.81;;;34.23;32.15
43488;BME280;29078;41.932;25.554;2022-07-25T09:26:55;99353.19;;;34.46;31.89
43488;BME280;29078;41.932;25.554;2022-07-25T09:29:29;99291.28;;;34.32;31.61
43488;BME280;29078;41.932;25.554;2022-07-25T09:31:56;99316.97;;;34.77;31.51
43488;BME280;29078;41.932;25.554;2022-07-25T09:34:35;99358.94;;;35.14;30.32
43488;BME280;29078;41.932;25.554;2022-07-25T09:37:06;99287.59;;;34.77;30.95
43488;BME280;29078;41.932;25.554;2022-07-25T09:42:24;99353.75;;;35.37;29.91
43488;BME280;29078;41.932;25.554;2022-07-25T09:47:31;99361.19;;;35.76;29.28
43488;BME280;29078;41.932;25.554;2022-07-25T09:49:58;99303.06;;;35.46;29.15
43488;BME280;29078;41.932;25.554;2022-07-25T09:52:23;99327.00;;;35.74;28.97
43488;BME280;29078;41.932;25.554;2022-07-25T09:54:49;99316.56;;;35.67;29.48
43488;BME280;29078;41.932;25.554;2022-07-25T09:57:14;99303.16;;;35.78;29.08
43488;BME280;29078;41.932;25.554;2022-07-25T09:59:41;99336.13;;;35.78;29.13
43488;BME280;29078;41.932;25.554;2022-07-25T10:05:34;99338.25;;;36.12;28.92
43488;BME280;29078;41.932;25.554;2022-07-25T10:07:44;99262.59;;;35.87;28.31
43488;BME280;29078;41.932;25.554;2022-07-25T10:10:26;99269.34;;;36.21;28.37
43488;BME280;29078;41.932;25.554;2022-07-25T10:13:10;99322.31;;;36.65;27.83
43488;BME280;29078;41.932;25.554;2022-07-25T10:15:51;99313.00;;;36.70;28.13
43488;BME280;29078;41.932;25.554;2022-07-25T10:18:22;99265.91;;;36.40;27.89
43488;BME280;29078;41.932;25.554;2022-07-25T10:20:51;99219.44;;;36.35;27.96
43488;BME280;29078;41.932;25.554;2022-07-25T10:23:20;99314.25;;;37.07;27.52
43488;BME280;29078;41.932;25.554;2022-07-25T10:25:46;99285.63;;;36.92;27.46
43488;BME280;29078;41.932;25.554;2022-07-25T10:28:34;99131.31;;;36.12;26.98
43488;BME280;29078;41.932;25.554;2022-07-25T10:31:00;99101.16;;;36.15;27.14
43488;BME280;29078;41.932;25.554;2022-07-25T10:33:25;99187.22;;;36.86;26.92
43488;BME280;29078;41.932;25.554;2022-07-25T10:35:51;99277.44;;;36.96;27.13
43488;BME280;29078;41.932;25.554;2022-07-25T10:38:23;99293.16;;;36.96;27.53
43488;BME280;29078;41.932;25.554;2022-07-25T10:40:49;99274.41;;;36.66;27.66
43488;BME280;29078;41.932;25.554;2022-07-25T10:43:20;99286.22;;;37.02;27.42
43488;BME280;29078;41.932;25.554;2022-07-25T10:45:55;99276.81;;;37.03;27.28
43488;BME280;29078;41.932;25.554;2022-07-25T10:48:24;99224.50;;;37.03;26.96
43488;BME280;29078;41.932;25.554;2022-07-25T10:51:01;99169.94;;;36.70;26.96
43488;BME280;29078;41.932;25.554;2022-07-25T10:53:38;99274.38;;;37.75;26.46
43488;BME280;29078;41.932;25.554;2022-07-25T10:58:50;99273.34;;;37.06;27.05
43488;BME280;29078;41.932;25.554;2022-07-25T11:01:30;99226.81;;;36.46;27.25
43488;BME280;29078;41.932;25.554;2022-07-25T11:04:01;99269.22;;;36.45;27.63
43488;BME280;29078;41.932;25.554;2022-07-25T11:06:31;99264.75;;;36.41;27.66
43488;BME280;29078;41.932;25.554;2022-07-25T11:08:57;99201.88;;;36.39;27.40
43488;BME280;29078;41.932;25.554;2022-07-25T11:11:52;99240.59;;;37.01;27.21
43488;BME280;29078;41.932;25.554;2022-07-25T11:16:44;99220.88;;;37.57;25.76
43488;BME280;29078;41.932;25.554;2022-07-25T11:19:26;99194.84;;;37.31;25.64
43488;BME280;29078;41.932;25.554;2022-07-25T11:21:57;99139.59;;;36.47;26.39
43488;BME280;29078;41.932;25.554;2022-07-25T11:24:40;99153.88;;;36.52;25.91
43488;BME280;29078;41.932;25.554;2022-07-25T11:27:09;99197.06;;;37.06;25.96
43488;BME280;29078;41.932;25.554;2022-07-25T11:29:35;99254.66;;;37.73;25.66
43488;BME280;29078;41.932;25.554;2022-07-25T11:32:05;99243.38;;;38.01;25.56
43488;BME280;29078;41.932;25.554;2022-07-25T11:34:33;99151.53;;;37.74;25.28
43488;BME280;29078;41.932;25.554;2022-07-25T11:37:00;99203.66;;;38.28;24.87
43488;BME280;29078;41.932;25.554;2022-07-25T11:39:29;99244.44;;;38.42;24.54
43488;BME280;29078;41.932;25.554;2022-07-25T11:41:59;99192.56;;;37.79;25.25
43488;BME280;29078;41.932;25.554;2022-07-25T11:44:32;99233.31;;;38.12;25.19
43488;BME280;29078;41.932;25.554;2022-07-25T11:46:58;99112.44;;;37.22;25.29
43488;BME280;29078;41.932;25.554;2022-07-25T11:49:23;99189.47;;;37.38;25.49
43488;BME280;29078;41.932;25.554;2022-07-25T11:51:49;99004.69;;;36.40;25.22
43488;BME280;29078;41.932;25.554;2022-07-25T11:54:14;99176.28;;;37.93;24.59
43488;BME280;29078;41.932;25.554;2022-07-25T11:56:41;99239.19;;;38.33;24.34
43488;BME280;29078;41.932;25.554;2022-07-25T11:59:07;99203.22;;;37.80;24.96
43488;BME280;29078;41.932;25.554;2022-07-25T12:01:41;99177.13;;;37.13;25.36
43488;BME280;29078;41.932;25.554;2022-07-25T12:04:08;99217.47;;;37.63;25.21
43488;BME280;29078;41.932;25.554;2022-07-25T12:06:33;99214.09;;;37.93;24.76
43488;BME280;29078;41.932;25.554;2022-07-25T12:09:15;99160.41;;;37.87;24.36
43488;BME280;29078;41.932;25.554;2022-07-25T12:11:41;99141.84;;;38.06;24.28
43488;BME280;29078;41.932;25.554;2022-07-25T12:14:07;99157.66;;;37.87;24.67
43488;BME280;29078;41.932;25.554;2022-07-25T12:16:34;99107.16;;;37.56;24.80
43488;BME280;29078;41.932;25.554;2022-07-25T12:18:59;99143.34;;;37.77;24.30
43488;BME280;29078;41.932;25.554;2022-07-25T12:21:26;99136.13;;;37.69;24.51
43488;BME280;29078;41.932;25.554;2022-07-25T12:23:51;99106.78;;;37.15;24.76
43488;BME280;29078;41.932;25.554;2022-07-25T12:26:17;99176.84;;;37.37;24.88
43488;BME280;29078;41.932;25.554;2022-07-25T12:28:43;99132.94;;;37.06;25.12
43488;BME280;29078;41.932;25.554;2022-07-25T12:31:08;99092.63;;;36.55;25.37
43488;BME280;29078;41.932;25.554;2022-07-25T12:33:34;99112.97;;;36.89;25.49
43488;BME280;29078;41.932;25.554;2022-07-25T12:36:00;99193.63;;;37.94;24.87
43488;BME280;29078;41.932;25.554;2022-07-25T12:38:26;99171.06;;;37.88;25.01
43488;BME280;29078;41.932;25.554;2022-07-25T12:40:52;99193.50;;;38.36;24.49
43488;BME280;29078;41.932;25.554;2022-07-25T12:43:18;99170.66;;;38.35;24.28
43488;BME280;29078;41.932;25.554;2022-07-25T12:45:43;99170.41;;;37.95;24.30
43488;BME280;29078;41.932;25.554;2022-07-25T12:48:09;99016.84;;;36.77;24.68
43488;BME280;29078;41.932;25.554;2022-07-25T12:50:36;99042.84;;;36.80;25.08
43488;BME280;29078;41.932;25.554;2022-07-25T12:53:02;99124.59;;;37.41;24.71
43488;BME280;29078;41.932;25.554;2022-07-25T12:55:28;99097.97;;;37.06;24.75
43488;BME280;29078;41.932;25.554;2022-07-25T12:57:54;99133.97;;;37.36;24.84
43488;BME280;29078;41.932;25.554;2022-07-25T13:00:21;99141.66;;;37.50;24.81
43488;BME280;29078;41.932;25.554;2022-07-25T13:02:48;99131.78;;;37.91;24.32
43488;BME280;29078;41.932;25.554;2022-07-25T13:05:16;99173.63;;;38.23;24.07